createdAt,value
2023-03-10T00:01:30.027Z,99221.56
2023-03-10T00:04:01.106Z,99215.84
2023-03-10T00:06:32.416Z,99209.41
2023-03-10T00:08:59.919Z,99204.06
2023-03-10T00:11:27.113Z,99209.84
2023-03-10T00:13:54.300Z,99212.22
2023-03-10T00:16:29.812Z,99201.81
2023-03-10T00:18:57.598Z,99195.59
2023-03-10T00:21:28.713Z,99194.38
2023-03-10T00:23:56.990Z,99194.19
2023-03-10T00:26:27.572Z,99208.97
2023-03-10T00:28:55.532Z,99191.75
2023-03-10T00:31:25.665Z,99189.97
2023-03-10T00:33:52.765Z,99179.47
2023-03-10T00:36:42.408Z,99177.63
2023-03-10T00:39:11.851Z,99174.97
2023-03-10T00:41:50.245Z,99176.94
2023-03-10T00:44:17.360Z,99177.44
2023-03-10T00:46:44.395Z,99174.91
2023-03-10T00:49:16.797Z,99171.44
2023-03-10T00:51:44.130Z,99163.94
2023-03-10T00:54:11.359Z,99154.53
2023-03-10T00:56:38.837Z,99149.28
2023-03-10T00:59:08.247Z,99140.47
2023-03-10T01:01:39.927Z,99145.22
2023-03-10T01:04:14.757Z,99142.56
2023-03-10T01:06:44.526Z,99135.34
2023-03-10T01:09:11.500Z,99136.22
2023-03-10T01:11:39.501Z,99116.28
2023-03-10T01:14:10.797Z,99111.09
2023-03-10T01:16:38.908Z,99113.81
2023-03-10T01:19:06.027Z,99104.50
2023-03-10T01:21:36.231Z,99100.09
2023-03-10T01:24:05.181Z,99099.91
2023-03-10T01:26:33.857Z,99092.97
2023-03-10T01:29:00.866Z,99099.16
2023-03-10T01:31:27.965Z,99082.50
2023-03-10T01:33:56.406Z,99087.50
2023-03-10T01:36:29.111Z,99077.28
2023-03-10T01:39:00.956Z,99082.75
2023-03-10T01:41:28.074Z,99086.97
2023-03-10T01:43:56.970Z,99075.41
2023-03-10T01:46:44.923Z,99071.91
2023-03-10T01:49:24.972Z,99063.25
2023-03-10T01:51:58.843Z,99058.09
2023-03-10T01:54:31.226Z,99053.72
2023-03-10T01:56:59.085Z,99045.78
2023-03-10T01:59:28.723Z,99051.66
2023-03-10T02:01:59.236Z,99046.16
2023-03-10T02:04:51.502Z,99044.06
2023-03-10T02:07:22.831Z,99042.09
2023-03-10T02:09:52.704Z,99039.38
2023-03-10T02:12:19.633Z,99031.25
2023-03-10T02:14:50.874Z,99039.34
2023-03-10T02:17:22.032Z,99040.06
2023-03-10T02:19:52.126Z,99035.91
2023-03-10T02:22:19.304Z,99033.94
2023-03-10T02:25:22.354Z,99026.19
2023-03-10T02:27:50.655Z,99021.62
2023-03-10T02:30:24.162Z,99014.12
2023-03-10T02:32:59.766Z,99009.72
2023-03-10T02:35:26.734Z,98996.53
2023-03-10T02:37:54.021Z,98993.69
2023-03-10T02:40:40.800Z,98992.00
2023-03-10T02:43:28.081Z,98991.56
2023-03-10T02:46:02.561Z,98992.41
2023-03-10T02:48:38.767Z,98995.78
2023-03-10T02:51:38.508Z,98985.97
2023-03-10T02:54:11.274Z,98987.13
2023-03-10T02:56:38.826Z,98992.38
2023-03-10T02:59:07.803Z,98987.72
2023-03-10T03:01:35.244Z,98985.66
2023-03-10T03:04:05.166Z,98973.59
2023-03-10T03:06:32.269Z,98974.81
2023-03-10T03:08:59.380Z,98972.44
2023-03-10T03:11:26.423Z,98965.06
2023-03-10T03:13:53.415Z,98958.56
2023-03-10T03:16:20.482Z,98949.72
2023-03-10T03:18:47.723Z,98941.97
2023-03-10T03:21:17.720Z,98933.16
2023-03-10T03:23:46.721Z,98933.00
2023-03-10T03:26:19.117Z,98933.84
2023-03-10T03:28:46.665Z,98935.63
2023-03-10T03:31:16.047Z,98932.91
2023-03-10T03:33:43.615Z,98929.28
2023-03-10T03:36:11.549Z,98925.41
2023-03-10T03:38:39.010Z,98921.81
2023-03-10T03:41:08.788Z,98918.28
2023-03-10T03:43:35.584Z,98926.19
2023-03-10T03:46:02.657Z,98919.88
2023-03-10T03:48:29.690Z,98905.78
2023-03-10T03:50:56.685Z,98917.91
2023-03-10T03:53:23.629Z,98903.47
2023-03-10T03:55:51.622Z,98908.44
2023-03-10T03:58:18.879Z,98911.75
2023-03-10T04:00:45.977Z,98909.75
2023-03-10T04:03:13.110Z,98898.91
2023-03-10T04:05:42.663Z,98897.38
2023-03-10T04:08:09.704Z,98891.94
2023-03-10T04:10:39.182Z,98892.78
2023-03-10T04:13:06.112Z,98890.78
2023-03-10T04:15:33.420Z,98881.25
2023-03-10T04:18:00.520Z,98877.06
2023-03-10T04:20:27.482Z,98878.47
2023-03-10T04:22:57.434Z,98872.44
2023-03-10T04:25:26.642Z,98869.66
2023-03-10T04:27:53.713Z,98868.94
2023-03-10T04:30:21.338Z,98871.78
2023-03-10T04:32:49.389Z,98858.19
2023-03-10T04:35:16.545Z,98860.22
2023-03-10T04:37:45.466Z,98859.09
2023-03-10T04:40:14.324Z,98858.69
2023-03-10T04:42:41.493Z,98837.69
2023-03-10T04:45:09.267Z,98833.78
2023-03-10T04:47:36.476Z,98828.97
2023-03-10T04:50:04.455Z,98832.38
2023-03-10T04:52:31.746Z,98829.56
2023-03-10T04:54:58.899Z,98826.69
2023-03-10T04:57:25.866Z,98820.63
2023-03-10T04:59:53.165Z,98820.78
2023-03-10T05:02:20.485Z,98817.63
2023-03-10T05:04:47.674Z,98803.59
2023-03-10T05:07:14.816Z,98798.13
2023-03-10T05:09:43.166Z,98797.78
2023-03-10T05:12:10.940Z,98801.75
2023-03-10T05:14:42.553Z,98787.63
2023-03-10T05:17:09.968Z,98791.72
2023-03-10T05:19:40.884Z,98793.91
2023-03-10T05:22:11.398Z,98799.03
2023-03-10T05:24:39.635Z,98785.47
2023-03-10T05:27:09.271Z,98786.88
2023-03-10T05:29:43.384Z,98788.72
2023-03-10T05:32:10.493Z,98778.91
2023-03-10T05:37:21.072Z,98777.56
2023-03-10T05:39:54.249Z,98772.16
2023-03-10T05:42:27.176Z,98765.13
2023-03-10T05:44:56.612Z,98764.91
2023-03-10T05:47:29.134Z,98759.59
2023-03-10T05:49:57.756Z,98762.59
2023-03-10T05:52:30.063Z,98764.13
2023-03-10T05:55:13.926Z,98763.59
2023-03-10T05:57:54.406Z,98766.81
2023-03-10T06:00:42.516Z,98763.81
2023-03-10T06:03:30.297Z,98764.38
2023-03-10T06:14:53.184Z,98754.88
2023-03-10T06:17:21.821Z,98753.28
2023-03-10T06:19:49.082Z,98755.31
2023-03-10T06:22:18.551Z,98749.81
2023-03-10T06:25:03.928Z,98748.34
2023-03-10T06:30:17.905Z,98748.81
2023-03-10T06:32:52.578Z,98750.41
2023-03-10T06:35:27.172Z,98746.41
2023-03-10T06:37:57.108Z,98750.56
2023-03-10T06:40:24.629Z,98751.09
2023-03-10T06:42:52.235Z,98767.22
2023-03-10T06:45:20.119Z,98761.00
2023-03-10T06:47:52.186Z,98757.91
2023-03-10T06:50:19.677Z,98763.34
2023-03-10T06:52:52.943Z,98754.91
2023-03-10T06:55:23.107Z,98746.00
2023-03-10T06:57:50.585Z,98742.81
2023-03-10T07:00:19.957Z,98730.88
2023-03-10T07:02:47.031Z,98732.19
2023-03-10T07:05:18.209Z,98729.28
2023-03-10T07:07:46.960Z,98728.78
2023-03-10T07:10:14.780Z,98733.56
2023-03-10T07:12:42.485Z,98733.19
2023-03-10T07:15:11.645Z,98727.97
2023-03-10T07:17:39.572Z,98719.41
2023-03-10T07:20:07.333Z,98724.34
2023-03-10T07:22:34.334Z,98721.53
2023-03-10T07:25:01.287Z,98709.72
2023-03-10T07:27:30.112Z,98705.09
2023-03-10T07:29:57.311Z,98702.53
2023-03-10T07:32:25.370Z,98697.19
2023-03-10T07:34:53.502Z,98696.28
2023-03-10T07:37:20.751Z,98689.00
2023-03-10T07:39:49.132Z,98689.19
2023-03-10T07:42:18.217Z,98699.75
2023-03-10T07:44:45.216Z,98685.25
2023-03-10T07:47:12.400Z,98687.44
2023-03-10T07:49:39.612Z,98681.53
2023-03-10T07:52:06.782Z,98679.94
2023-03-10T07:54:33.853Z,98679.22
2023-03-10T07:57:00.938Z,98669.81
2023-03-10T07:59:28.075Z,98665.13
2023-03-10T08:01:55.134Z,98664.31
2023-03-10T08:04:22.323Z,98655.38
2023-03-10T08:06:50.033Z,98656.91
2023-03-10T08:09:17.148Z,98650.19
2023-03-10T08:11:44.206Z,98644.09
2023-03-10T08:14:11.665Z,98638.78
2023-03-10T08:16:39.261Z,98646.25
2023-03-10T08:19:07.974Z,98636.41
2023-03-10T08:21:37.659Z,98632.59
2023-03-10T08:24:05.071Z,98619.94
2023-03-10T08:26:34.586Z,98618.38
2023-03-10T08:29:02.095Z,98606.16
2023-03-10T08:31:29.299Z,98601.13
2023-03-10T08:33:57.893Z,98596.75
2023-03-10T08:36:30.963Z,98597.00
2023-03-10T08:39:01.059Z,98584.41
2023-03-10T08:41:37.495Z,98585.59
2023-03-10T08:44:10.080Z,98587.03
2023-03-10T08:46:37.661Z,98584.88
2023-03-10T08:49:05.185Z,98569.78
2023-03-10T08:51:33.113Z,98568.47
2023-03-10T08:54:01.584Z,98569.47
2023-03-10T08:56:32.193Z,98563.97
2023-03-10T08:59:01.028Z,98556.44
2023-03-10T09:01:34.498Z,98559.00
2023-03-10T09:04:03.424Z,98557.94
2023-03-10T09:06:31.609Z,98545.34
2023-03-10T09:09:01.861Z,98548.22
2023-03-10T09:11:32.774Z,98546.16
2023-03-10T09:14:04.345Z,98535.19
2023-03-10T09:16:32.039Z,98539.22
2023-03-10T09:19:00.391Z,98538.84
2023-03-10T09:21:32.749Z,98533.31
2023-03-10T09:24:01.501Z,98517.97
2023-03-10T09:26:30.668Z,98525.09
2023-03-10T09:28:57.905Z,98530.16
2023-03-10T09:31:31.352Z,98513.06
2023-03-10T09:33:58.444Z,98528.03
2023-03-10T09:36:26.379Z,98524.50
2023-03-10T09:38:53.518Z,98525.28
2023-03-10T09:41:44.403Z,98519.03
2023-03-10T09:44:24.228Z,98516.94
2023-03-10T09:47:19.913Z,98515.59
2023-03-10T09:50:18.709Z,98505.06
2023-03-10T09:52:57.046Z,98494.03
2023-03-10T09:55:38.282Z,98494.34
2023-03-10T09:58:14.480Z,98484.84
2023-03-10T10:00:45.433Z,98486.47
2023-03-10T10:03:28.133Z,98482.97
2023-03-10T10:05:57.075Z,98478.22
2023-03-10T10:08:44.981Z,98468.31
2023-03-10T10:11:19.930Z,98462.50
2023-03-10T10:13:47.162Z,98471.75
2023-03-10T10:16:31.978Z,98465.38
2023-03-10T10:19:29.884Z,98462.66
2023-03-10T10:22:13.985Z,98454.13
2023-03-10T10:24:41.159Z,98436.81
2023-03-10T10:27:08.260Z,98426.38
2023-03-10T10:29:37.992Z,98419.03
2023-03-10T10:32:11.955Z,98430.13
2023-03-10T10:34:44.173Z,98414.72
2023-03-10T10:37:23.576Z,98411.88
2023-03-10T10:39:55.273Z,98414.78
2023-03-10T10:42:34.730Z,98418.53
2023-03-10T10:45:05.576Z,98410.81
2023-03-10T10:47:52.389Z,98406.41
2023-03-10T10:50:19.553Z,98398.41
2023-03-10T10:52:53.375Z,98388.62
2023-03-10T10:55:38.168Z,98381.81
2023-03-10T10:58:23.776Z,98383.88
2023-03-10T11:01:20.197Z,98375.13
2023-03-10T11:03:49.256Z,98362.84
2023-03-10T11:06:27.677Z,98365.62
2023-03-10T11:09:10.944Z,98353.31
2023-03-10T11:12:03.527Z,98361.81
2023-03-10T11:14:57.559Z,98356.28
2023-03-10T11:17:33.707Z,98339.00
2023-03-10T11:20:27.972Z,98331.53
2023-03-10T11:23:18.765Z,98329.78
2023-03-10T11:26:19.293Z,98312.44
2023-03-10T11:29:14.684Z,98298.19
2023-03-10T11:31:58.765Z,98286.91
2023-03-10T11:34:31.720Z,98285.63
2023-03-10T11:37:32.435Z,98273.63
2023-03-10T11:40:25.364Z,98267.28
2023-03-10T11:43:25.798Z,98274.38
2023-03-10T11:45:55.049Z,98254.91
2023-03-10T11:48:49.593Z,98249.91
2023-03-10T11:51:51.998Z,98252.22
2023-03-10T11:54:35.738Z,98241.50
2023-03-10T11:57:24.127Z,98233.34
2023-03-10T11:59:58.127Z,98235.59
2023-03-10T12:02:33.328Z,98225.31
2023-03-10T12:05:27.424Z,98222.81
2023-03-10T12:08:03.105Z,98201.47
2023-03-10T12:10:32.656Z,98208.66
2023-03-10T12:13:13.604Z,98207.31
2023-03-10T12:15:45.351Z,98202.00
2023-03-10T12:18:16.118Z,98195.66
2023-03-10T12:23:44.048Z,98178.78
2023-03-10T12:26:16.371Z,98180.44
2023-03-10T12:28:44.546Z,98177.56
2023-03-10T12:31:37.110Z,98178.09
2023-03-10T12:34:19.247Z,98162.56
2023-03-10T12:36:49.761Z,98167.03
2023-03-10T12:39:29.614Z,98168.38
2023-03-10T12:41:59.905Z,98155.50
2023-03-10T12:45:19.036Z,98154.50
2023-03-10T12:47:59.656Z,98150.38
2023-03-10T12:51:05.652Z,98149.37
2023-03-10T12:53:48.603Z,98144.38
2023-03-10T12:56:26.569Z,98142.00
2023-03-10T12:59:03.285Z,98143.38
2023-03-10T13:01:40.590Z,98143.84
2023-03-10T13:04:18.984Z,98142.19
2023-03-10T13:06:47.806Z,98152.56
2023-03-10T13:09:36.701Z,98143.44
2023-03-10T13:12:26.752Z,98143.09
2023-03-10T13:15:14.969Z,98131.97
2023-03-10T13:17:45.196Z,98137.41
2023-03-10T13:20:21.788Z,98139.25
2023-03-10T13:23:02.919Z,98143.16
2023-03-10T13:25:31.258Z,98136.09
2023-03-10T13:27:58.489Z,98137.81
2023-03-10T13:30:28.110Z,98132.34
2023-03-10T13:33:05.009Z,98146.94
2023-03-10T13:35:53.067Z,98133.22
2023-03-10T13:38:32.073Z,98133.06
2023-03-10T13:41:06.601Z,98137.38
2023-03-10T13:43:57.378Z,98134.25
2023-03-10T13:46:33.657Z,98133.66
2023-03-10T13:52:16.685Z,98120.56
2023-03-10T13:54:49.471Z,98125.50
2023-03-10T13:57:31.608Z,98129.31
2023-03-10T14:00:07.758Z,98125.63
2023-03-10T14:02:47.784Z,98124.53
2023-03-10T14:08:29.627Z,98123.06
2023-03-10T14:11:30.668Z,98122.81
2023-03-10T14:14:01.114Z,98109.81
2023-03-10T14:16:50.634Z,98106.16
2023-03-10T14:19:39.762Z,98107.09
2023-03-10T14:22:44.642Z,98102.31
2023-03-10T14:25:22.102Z,98094.28
2023-03-10T14:30:44.179Z,98096.44
2023-03-10T14:33:17.992Z,98099.84
2023-03-10T14:35:47.681Z,98096.41
2023-03-10T14:38:14.671Z,98105.72
2023-03-10T14:40:51.955Z,98108.44
2023-03-10T14:43:25.492Z,98104.56
2023-03-10T14:46:00.477Z,98115.09
2023-03-10T14:48:34.027Z,98113.47
2023-03-10T14:51:06.443Z,98112.06
2023-03-10T14:53:38.036Z,98114.72
2023-03-10T14:56:10.442Z,98113.59
2023-03-10T14:58:53.403Z,98105.69
2023-03-10T15:01:22.518Z,98111.09
2023-03-10T15:03:51.763Z,98105.72
2023-03-10T15:06:43.129Z,98108.41
2023-03-10T15:09:14.175Z,98112.91
2023-03-10T15:11:41.923Z,98111.91
2023-03-10T15:14:26.755Z,98102.91
2023-03-10T15:16:55.623Z,98103.72
2023-03-10T15:19:27.481Z,98105.44
2023-03-10T15:22:03.163Z,98108.66
2023-03-10T15:24:32.747Z,98105.88
2023-03-10T15:26:59.917Z,98107.69
2023-03-10T15:29:29.182Z,98096.97
2023-03-10T15:31:56.855Z,98105.44
2023-03-10T15:34:29.556Z,98102.19
2023-03-10T15:36:57.402Z,98104.03
2023-03-10T15:39:31.947Z,98102.81
2023-03-10T15:42:10.057Z,98109.94
2023-03-10T15:44:51.220Z,98108.66
2023-03-10T15:47:22.647Z,98101.06
2023-03-10T15:50:03.600Z,98092.34
2023-03-10T15:52:39.180Z,98094.91
2023-03-10T15:55:21.416Z,98099.12
2023-03-10T15:57:53.893Z,98096.25
2023-03-10T16:00:44.109Z,98095.16
2023-03-10T16:03:18.567Z,98087.78
2023-03-10T16:05:50.656Z,98083.62
2023-03-10T16:08:44.175Z,98091.75
2023-03-10T16:11:26.829Z,98092.12
2023-03-10T16:13:55.775Z,98098.66
2023-03-10T16:19:17.522Z,98092.03
2023-03-10T16:21:54.644Z,98085.63
2023-03-10T16:24:30.252Z,98086.78
2023-03-10T16:27:03.294Z,98086.28
2023-03-10T16:29:31.224Z,98085.56
2023-03-10T16:31:59.122Z,98082.72
2023-03-10T16:34:28.698Z,98080.72
2023-03-10T16:36:58.281Z,98082.41
2023-03-10T16:39:28.704Z,98081.78
2023-03-10T16:41:58.511Z,98079.41
2023-03-10T16:44:27.669Z,98096.78
2023-03-10T16:46:57.509Z,98102.50
2023-03-10T16:49:33.360Z,98105.34
2023-03-10T16:52:00.643Z,98100.03
2023-03-10T16:54:31.829Z,98102.94
2023-03-10T16:57:01.655Z,98111.22
2023-03-10T16:59:28.480Z,98107.19
2023-03-10T17:01:57.473Z,98125.03
2023-03-10T17:04:24.854Z,98152.84
2023-03-10T17:06:51.987Z,98171.84
2023-03-10T17:09:19.000Z,98182.13
2023-03-10T17:11:52.475Z,98191.22
2023-03-10T17:14:21.579Z,98185.81
2023-03-10T17:16:48.851Z,98171.31
2023-03-10T17:19:18.491Z,98189.38
2023-03-10T17:21:48.656Z,98189.94
2023-03-10T17:24:19.385Z,98191.25
2023-03-10T17:26:47.133Z,98191.19
2023-03-10T17:29:14.625Z,98192.94
2023-03-10T17:31:41.759Z,98205.81
2023-03-10T17:34:12.842Z,98225.37
2023-03-10T17:36:40.223Z,98235.03
2023-03-10T17:39:08.498Z,98248.03
2023-03-10T17:41:37.038Z,98253.38
2023-03-10T17:44:06.623Z,98251.88
2023-03-10T17:46:33.839Z,98262.28
2023-03-10T17:49:00.711Z,98262.22
2023-03-10T17:51:30.842Z,98250.56
2023-03-10T17:54:01.134Z,98262.00
2023-03-10T17:56:29.415Z,98274.12
2023-03-10T17:58:57.506Z,98273.00
2023-03-10T18:01:29.425Z,98266.69
2023-03-10T18:03:59.359Z,98274.44
2023-03-10T18:06:30.836Z,98273.25
2023-03-10T18:08:59.525Z,98280.63
2023-03-10T18:11:27.972Z,98278.03
2023-03-10T18:14:03.401Z,98283.56
2023-03-10T18:16:35.703Z,98268.13
2023-03-10T18:19:07.755Z,98264.22
2023-03-10T18:21:36.357Z,98272.28
2023-03-10T18:24:04.128Z,98249.88
2023-03-10T18:26:31.301Z,98244.97
2023-03-10T18:29:00.565Z,98237.69
2023-03-10T18:31:32.238Z,98250.22
2023-03-10T18:34:00.592Z,98240.13
2023-03-10T18:36:29.738Z,98241.91
2023-03-10T18:38:57.685Z,98237.34
2023-03-10T18:41:27.481Z,98236.00
2023-03-10T18:43:54.435Z,98244.03
2023-03-10T18:46:23.715Z,98236.22
2023-03-10T18:48:56.134Z,98237.81
2023-03-10T18:51:28.172Z,98228.16
2023-03-10T18:53:58.227Z,98213.66
2023-03-10T18:56:29.266Z,98209.81
2023-03-10T18:58:56.958Z,98210.41
2023-03-10T19:01:24.073Z,98218.13
2023-03-10T19:03:51.250Z,98223.72
2023-03-10T19:06:18.532Z,98231.34
2023-03-10T19:08:45.416Z,98232.13
2023-03-10T19:11:12.543Z,98249.72
2023-03-10T19:13:40.778Z,98254.63
2023-03-10T19:16:10.382Z,98266.28
2023-03-10T19:18:37.574Z,98272.75
2023-03-10T19:21:09.113Z,98281.84
2023-03-10T19:23:36.385Z,98276.47
2023-03-10T19:26:10.048Z,98273.59
2023-03-10T19:28:40.084Z,98275.84
2023-03-10T19:31:14.096Z,98274.09
2023-03-10T19:33:43.503Z,98288.75
2023-03-10T19:36:13.265Z,98290.19
2023-03-10T19:38:41.459Z,98288.81
2023-03-10T19:41:18.917Z,98284.22
2023-03-10T19:43:49.293Z,98285.84
2023-03-10T19:46:17.510Z,98287.66
2023-03-10T19:48:44.847Z,98289.41
2023-03-10T19:51:35.322Z,98281.16
2023-03-10T19:54:07.638Z,98281.00
2023-03-10T19:56:35.594Z,98292.16
2023-03-10T19:59:02.759Z,98304.59
2023-03-10T20:01:30.965Z,98302.94
2023-03-10T20:04:07.845Z,98320.06
2023-03-10T20:06:35.876Z,98323.75
2023-03-10T20:09:09.583Z,98331.31
2023-03-10T20:11:46.395Z,98323.72
2023-03-10T20:14:19.395Z,98331.91
2023-03-10T20:16:49.472Z,98323.53
2023-03-10T20:19:17.034Z,98341.09
2023-03-10T20:21:49.474Z,98329.34
2023-03-10T20:24:18.200Z,98309.44
2023-03-10T20:26:45.305Z,98319.44
2023-03-10T20:29:12.415Z,98325.19
2023-03-10T20:31:39.934Z,98303.88
2023-03-10T20:34:07.637Z,98291.75
2023-03-10T20:36:34.802Z,98274.34
2023-03-10T20:39:02.745Z,98264.09
2023-03-10T20:41:38.323Z,98251.12
2023-03-10T20:44:22.642Z,98259.16
2023-03-10T20:47:09.722Z,98246.78
2023-03-10T20:49:37.866Z,98247.84
2023-03-10T20:52:10.307Z,98256.81
2023-03-10T20:54:38.599Z,98258.91
2023-03-10T20:57:10.270Z,98263.41
2023-03-10T20:59:39.671Z,98272.44
2023-03-10T21:02:07.002Z,98280.13
2023-03-10T21:04:34.998Z,98264.34
2023-03-10T21:07:02.448Z,98259.88
2023-03-10T21:09:41.044Z,98270.25
2023-03-10T21:12:09.132Z,98274.56
2023-03-10T21:14:41.493Z,98277.34
2023-03-10T21:17:17.960Z,98278.37
2023-03-10T21:19:46.274Z,98279.31
2023-03-10T21:22:20.584Z,98282.03
2023-03-10T21:24:54.265Z,98286.19
2023-03-10T21:27:21.104Z,98283.44
2023-03-10T21:29:50.756Z,98293.31
2023-03-10T21:32:18.780Z,98281.53
2023-03-10T21:34:46.570Z,98283.81
2023-03-10T21:37:16.388Z,98274.75
2023-03-10T21:39:43.098Z,98277.69
2023-03-10T21:42:13.249Z,98283.34
2023-03-10T21:44:40.337Z,98282.12
2023-03-10T21:47:07.321Z,98290.06
2023-03-10T21:49:34.640Z,98290.47
2023-03-10T21:52:02.304Z,98292.56
2023-03-10T21:54:32.390Z,98291.78
2023-03-10T21:57:00.298Z,98288.75
2023-03-10T21:59:27.557Z,98289.22
2023-03-10T22:01:55.545Z,98293.81
2023-03-10T22:04:23.074Z,98297.88
2023-03-10T22:06:53.074Z,98298.84
2023-03-10T22:09:20.148Z,98296.88
2023-03-10T22:11:47.517Z,98298.66
2023-03-10T22:14:14.508Z,98298.97
2023-03-10T22:16:42.392Z,98290.94
2023-03-10T22:19:09.565Z,98291.19
2023-03-10T22:21:36.958Z,98287.88
2023-03-10T22:24:06.722Z,98284.66
2023-03-10T22:26:40.562Z,98291.13
2023-03-10T22:29:08.140Z,98294.66
2023-03-10T22:31:41.296Z,98300.66
2023-03-10T22:34:08.474Z,98304.03
2023-03-10T22:36:55.333Z,98305.78
2023-03-10T22:39:24.125Z,98307.09
2023-03-10T22:42:00.572Z,98304.22
2023-03-10T22:44:27.543Z,98299.03
2023-03-10T22:46:54.703Z,98309.91
2023-03-10T22:49:21.674Z,98311.25
2023-03-10T22:51:48.631Z,98307.16
2023-03-10T22:54:16.334Z,98313.75
2023-03-10T22:56:52.730Z,98312.81
2023-03-10T22:59:24.544Z,98308.81
2023-03-10T23:01:51.881Z,98307.22
2023-03-10T23:04:19.981Z,98322.91
2023-03-10T23:06:46.893Z,98317.09
2023-03-10T23:09:13.854Z,98330.03
2023-03-10T23:11:40.896Z,98336.31
2023-03-10T23:14:07.997Z,98325.88
2023-03-10T23:16:36.728Z,98330.44
2023-03-10T23:19:08.670Z,98332.53
2023-03-10T23:21:36.316Z,98337.78
2023-03-10T23:24:03.384Z,98345.88
2023-03-10T23:26:37.636Z,98352.47
2023-03-10T23:29:05.037Z,98354.13
2023-03-10T23:31:31.977Z,98357.91
2023-03-10T23:33:59.024Z,98358.31
2023-03-10T23:36:25.936Z,98363.84
2023-03-10T23:38:52.820Z,98370.72
2023-03-10T23:41:19.803Z,98368.03
2023-03-10T23:43:46.784Z,98363.06
2023-03-10T23:46:13.840Z,98357.53
2023-03-10T23:48:40.852Z,98355.63
2023-03-10T23:51:15.262Z,98356.41
2023-03-10T23:53:44.712Z,98361.22
2023-03-10T23:56:12.475Z,98355.78
2023-03-10T23:58:40.379Z,98370.41
